Terminal Aerodrome Forecast
Issued by NWS

Home | Current Version | Previous Version | Text Only | Print | Product List | Glossary On
Versions: 1 2 3 4 5 6 7 8 9 10 11 12 13 14 15 16
687
FTUS44 KEPZ 191139
TAFLRU
TAF
KLRU 191139Z 1912/2012 00000KT P6SM FEW080 BKN130 OVC180
     FM191800 26015G25KT P6SM VCTS SCT060CB BKN120
     FM200300 26011KT P6SM SCT060 BKN140=

USA.gov is the U.S. government's official web portal to all federal, state and local government web resources and services.